Niel, Belgium
Current Conditions -  °F | °C
As of 7:20 AM on Tuesday 21 Oct 2014 (Local Time) from EBAW Reporting Station
Broken Clouds Broken Clouds  
Wind Chill: 55°   Ceiling: 3400
Heat Index: 55°   Visibility: 6mi
Dew Point: 50°   Wind: 10mph
Humidity: 82%   Direction: 210°SSW
Pressure: 29.77"   Gusts: NA
Location:  51.11°N, 4.33°E
Report Text: EBAW 210520Z 21009KT 9999 BKN034 13/10 Q1008 TEMPO 21015G25KT
Loading
Personal Weather Stations






























Interactive Weather Map
Tropical Storm Tracking
New forecast layout! Learn more

10-Day Weather Forecast

Advertisements
Track Severe Weather on mobile